• Join FlightAware (Why Join?)
  • Login
  • US Flag 
12:42PM EDT


 

Airport Tracker/Info


-or-


 

Live Flight TrackerFlight Track Log ✈ SWA542 ✈ 10-Apr-2013 ✈ KMDW - KCMH

Flight Track Log - Related Links

Times and Time Zones

All times are in EDT time to prevent confusion due to time zone crossing. See the SWA542 flight status page for this flight to view local times or setup timezone preferences in your user account.

Time Position Orientation Groundspeed Altitude Reporting Facility
EDT Latitude Longitude Course Direction KTS MPH feet Rate Location/Type
11:18PM 41.8000 -87.7333 90° East 132 152 2,200  Level Chicago TRACON
11:19PM 41.8000 -87.6667 90° East 200 230 3,700 1,500 Climbing Chicago TRACON
11:20PM 41.7989 -87.5894 91° East 201 231 5,100 720 Climbing Chicago Center
11:21PM 41.8022 -87.4936 87° East 234 269 5,100 60 Level Chicago Center
11:22PM 41.8042 -87.3978 88° East 251 289 5,300 1,800 Climbing Chicago Center
11:23PM 41.8097 -87.2986 86° East 265 305 8,900 3,300 Climbing Chicago Center
11:24PM 41.8183 -87.1858 84° East 300 345 12,100 2,940 Climbing Chicago Center
11:25PM 41.8108 -87.0617 95° East 328 377 15,000 1,920 Climbing Chicago Center
11:26PM 41.8031 -86.9303 94° East 348 400 16,100 2,160 Climbing Chicago Center
11:27PM 41.7947 -86.7864 94° East 384 442 19,500 3,240 Climbing Chicago Center
11:28PM 41.7856 -86.6272 94° East 396 456 22,800 2,520 Climbing Chicago Center
11:29PM 41.7764 -86.4714 94° East 418 481 24,700 2,160 Climbing Chicago Center
11:30PM 41.7678 -86.3089 94° East 436 502 27,300 2,040 Climbing Chicago Center
11:31PM 41.7642 -86.1203 91° East 444 511 29,000 780 Climbing Chicago Center
11:32PM 41.7583 -85.9322 92° East 472 543 29,000  Level Chicago Center
11:33PM 41.7542 -85.7592 92° East 466 536 29,000  Level Chicago Center
11:34PM 41.7519 -85.5847 91° East 464 534 29,000  Level Chicago Center
11:35PM 41.7486 -85.4072 91° East 464 534 29,000  Level Chicago Center
11:36PM 41.7461 -85.2314 91° East 463 533 29,000  Level Chicago Center
11:37PM 41.7431 -85.1172 92° East 461 531 29,000  Level Cleveland Center
11:38PM 41.7097 -84.9589 106° East 456 525 29,000  Level Cleveland Center
11:39PM 41.6717 -84.8006 108° East 446 513 29,000  Level Cleveland Center
11:40PM 41.6250 -84.6503 113° Southeast 441 507 29,000  Level Cleveland Center
11:41PM 41.5653 -84.5133 120° Southeast 431 496 29,000  Level Cleveland Center
11:42PM 41.5117 -84.3658 116° Southeast 436 502 29,000  Level Cleveland Center
11:43PM 41.4581 -84.2242 117° Southeast 436 502 29,000  Level Cleveland Center
11:44PM 41.3828 -84.0981 128° Southeast 436 502 29,000  Level Cleveland Center
11:45PM 41.3047 -83.9861 133° Southeast 426 490 29,000 -240 Level Cleveland Center
11:46PM 41.2139 -83.8872 141° Southeast 420 483 28,600 -1,200 Descending Cleveland Center
11:47PM 41.1228 -83.7889 141° Southeast 426 490 26,600 -1,980 Descending Cleveland Center
11:48PM 41.0503 -83.7000 137° Southeast 410 472 24,700 -2,100 Descending Cleveland Center
11:49PM 40.9653 -83.6053 140° Southeast 404 465 22,400 -2,100 Descending Cleveland Center
11:50PM 40.8775 -83.5244 145° Southeast 388 447 20,500 -1,800 Descending Cleveland Center
11:51PM 40.8094 -83.4225 131° Southeast 374 430 18,800 -1,620 Descending Cleveland Center
11:53PM 40.6422 -83.2072 136° Southeast 347 399 15,100 -1,620 Descending Indianapolis Center
11:54PM 40.5669 -83.1108 136° Southeast 334 384 13,400 -1,680 Descending Indianapolis Center
11:55PM 40.5200 -83.0875 159° South 310 357 12,500 -1,380 Descending Indianapolis Center
11:55PM 40.4944 -83.0847 175° South 313 360 12,000 -1,320 Descending Indianapolis Center
11:56PM 40.4403 -83.0919 186° South 274 315 11,200 -1,140 Descending Indianapolis Center
11:56PM 40.4172 -83.0931 182° South 279 321 10,900 -720 Descending Indianapolis Center
11:57PM 40.3706 -83.1000 186° South 263 303 10,600 -1,320 Descending Indianapolis Center
11:58PM 40.3306 -83.0956 175° South 269 310 9,600 -1,500 Descending Indianapolis Center
11:58PM 40.3008 -83.0783 156° South 267 307 9,100 -1,500 Descending Indianapolis Center
11:59PM 40.2619 -83.0569 157° South 268 308 8,100 -1,500 Descending Indianapolis Center
11:59PM 40.2344 -83.0378 152° Southeast 267 307 7,600 -1,380 Descending Indianapolis Center
12:00AM 40.2083 -82.9875 124° Southeast 279 321 6,700 -1,440 Descending Indianapolis Center
12:00AM 40.1878 -82.9558 130° Southeast 280 322 6,200 -1,380 Descending Indianapolis Center
12:01AM 40.1608 -82.9081 126° Southeast 277 319 5,300 -1,020 Descending Indianapolis Center
12:01AM 40.1428 -82.8797 130° Southeast 269 310 5,200 -600 Descending Indianapolis Center
12:02AM 40.1136 -82.8372 132° Southeast 265 305 4,700 -660 Descending Indianapolis Center
12:02AM 40.1028 -82.8208 131° Southeast 232 267 4,600 -840 Descending Indianapolis Center
12:03AM 40.0744 -82.7767 130° Southeast 234 269 3,900 -840 Descending Indianapolis Center
12:03AM 40.0603 -82.7642 146° Southeast 207 238 3,800 -900 Descending Indianapolis Center
12:04AM 40.0250 -82.7464 159° South 212 244 3,000 -840 Descending Indianapolis Center
12:04AM 40.0108 -82.7533 201° Southwest 183 211 3,000 -840 Level Indianapolis Center
12:05AM 39.9922 -82.7856 233° Southwest 179 206 2,200 -1,140 Descending Indianapolis Center
12:05AM 39.9908 -82.8056 265° West 140 161 1,900 -840 Descending Indianapolis Center
12:06AM 39.9889 -82.8375 265° West 153 176 1,400 -840 Descending Indianapolis Center
12:06AM 39.9914 -82.8572 279° West 140 161 1,100 -300 Descending Indianapolis Center
12:07AM 39.9931 -82.8825 275° West 149 171 1,100  Level Indianapolis Center